createdAt,value
2022-10-13T00:00:50.293Z,14.27
2022-10-13T00:03:18.119Z,16.57
2022-10-13T00:05:47.476Z,21.98
2022-10-13T00:08:17.337Z,21.23
2022-10-13T00:10:44.579Z,22.10
2022-10-13T00:13:12.316Z,17.70
2022-10-13T00:15:44.757Z,23.20
2022-10-13T00:18:12.136Z,23.35
2022-10-13T00:20:48.774Z,21.52
2022-10-13T00:23:16.758Z,20.77
2022-10-13T00:25:48.792Z,17.60
2022-10-13T00:28:18.690Z,20.57
2022-10-13T00:30:46.843Z,21.27
2022-10-13T00:33:14.363Z,24.58
2022-10-13T00:35:46.336Z,24.40
2022-10-13T00:38:13.739Z,22.77
2022-10-13T00:40:55.660Z,20.73
2022-10-13T00:43:46.976Z,21.92
2022-10-13T00:46:14.975Z,20.08
2022-10-13T00:48:43.285Z,17.85
2022-10-13T00:51:12.148Z,25.48
2022-10-13T00:53:40.936Z,23.30
2022-10-13T00:56:11.419Z,19.65
2022-10-13T00:58:40.616Z,18.90
2022-10-13T01:01:08.322Z,19.50
2022-10-13T01:03:36.167Z,21.70
2022-10-13T01:06:05.195Z,24.30
2022-10-13T01:08:33.501Z,19.63
2022-10-13T01:11:09.152Z,17.98
2022-10-13T01:13:46.484Z,19.15
2022-10-13T01:16:22.296Z,20.95
2022-10-13T01:18:52.532Z,20.43
2022-10-13T01:21:31.933Z,21.15
2022-10-13T01:24:02.120Z,22.42
2022-10-13T01:26:40.751Z,25.77
2022-10-13T01:29:16.549Z,25.33
2022-10-13T01:32:18.292Z,26.17
2022-10-13T01:35:12.050Z,27.92
2022-10-13T01:37:47.988Z,25.42
2022-10-13T01:40:39.100Z,26.40
2022-10-13T01:43:14.408Z,26.50
2022-10-13T01:46:07.752Z,26.50
2022-10-13T01:48:38.088Z,26.98
2022-10-13T01:51:09.189Z,28.25
2022-10-13T01:53:36.900Z,23.75
2022-10-13T01:56:03.898Z,25.40
2022-10-13T01:58:34.534Z,24.40
2022-10-13T02:01:20.011Z,25.23
2022-10-13T02:04:24.589Z,21.52
2022-10-13T02:07:03.940Z,21.50
2022-10-13T02:09:43.815Z,24.48
2022-10-13T02:12:19.408Z,28.00
2022-10-13T02:14:49.320Z,30.20
2022-10-13T02:17:17.238Z,29.70
2022-10-13T02:19:45.355Z,31.40
2022-10-13T02:22:15.293Z,23.50
2022-10-13T02:24:42.396Z,20.83
2022-10-13T02:27:09.535Z,24.58
2022-10-13T02:29:53.686Z,21.25
2022-10-13T02:32:21.612Z,22.75
2022-10-13T02:34:49.736Z,18.80
2022-10-13T02:37:17.291Z,19.83
2022-10-13T02:39:44.131Z,16.40
2022-10-13T02:42:11.080Z,23.00
2022-10-13T02:44:38.117Z,19.92
2022-10-13T02:47:05.237Z,22.40
2022-10-13T02:49:32.178Z,18.93
2022-10-13T02:51:59.430Z,20.20
2022-10-13T02:54:26.197Z,20.25
2022-10-13T02:56:52.997Z,20.05
2022-10-13T02:59:20.277Z,21.80
2022-10-13T03:01:47.132Z,23.10
2022-10-13T03:04:13.912Z,25.15
2022-10-13T03:06:40.793Z,27.38
2022-10-13T03:09:07.700Z,22.25
2022-10-13T03:11:34.740Z,30.88
2022-10-13T03:14:02.903Z,25.60
2022-10-13T03:16:29.719Z,21.92
2022-10-13T03:18:56.680Z,22.20
2022-10-13T03:21:23.901Z,29.52
2022-10-13T03:23:50.873Z,30.15
2022-10-13T03:26:17.770Z,26.27
2022-10-13T03:28:49.445Z,24.95
2022-10-13T03:31:17.565Z,25.63
2022-10-13T03:33:45.482Z,25.05
2022-10-13T03:36:13.436Z,23.23
2022-10-13T03:38:40.492Z,26.47
2022-10-13T03:41:09.937Z,24.25
2022-10-13T03:43:37.101Z,23.92
2022-10-13T03:46:05.987Z,20.55
2022-10-13T03:48:34.053Z,20.80
2022-10-13T03:51:04.874Z,21.57
2022-10-13T03:53:31.673Z,20.95
2022-10-13T03:55:58.610Z,23.95
2022-10-13T03:58:25.994Z,19.13
2022-10-13T04:00:52.859Z,26.20
2022-10-13T04:03:20.062Z,20.73
2022-10-13T04:05:47.679Z,20.73
2022-10-13T04:08:14.835Z,28.10
2022-10-13T04:10:42.406Z,31.58
2022-10-13T04:13:09.483Z,38.38
2022-10-13T04:15:38.229Z,35.03
2022-10-13T04:18:07.296Z,26.65
2022-10-13T04:20:40.771Z,28.65
2022-10-13T04:23:07.914Z,36.38
2022-10-13T04:25:36.355Z,55.17
2022-10-13T04:28:05.578Z,38.13
2022-10-13T04:30:38.001Z,34.05
2022-10-13T04:33:05.795Z,34.20
2022-10-13T04:35:33.329Z,32.78
2022-10-13T04:38:00.380Z,33.00
2022-10-13T04:40:27.400Z,31.63
2022-10-13T04:42:54.598Z,37.47
2022-10-13T04:45:21.697Z,32.30
2022-10-13T04:47:49.016Z,36.90
2022-10-13T04:50:16.056Z,34.28
2022-10-13T04:52:42.917Z,34.23
2022-10-13T04:55:10.012Z,33.58
2022-10-13T04:57:37.233Z,31.50
2022-10-13T05:00:05.437Z,32.22
2022-10-13T05:02:32.275Z,26.83
2022-10-13T05:04:59.192Z,25.47
2022-10-13T05:07:25.947Z,35.05
2022-10-13T05:09:53.055Z,23.65
2022-10-13T05:12:20.371Z,33.60
2022-10-13T05:14:47.592Z,26.77
2022-10-13T05:17:14.596Z,35.40
2022-10-13T05:19:41.677Z,29.15
2022-10-13T05:22:08.373Z,24.77
2022-10-13T05:24:35.469Z,30.92
2022-10-13T05:27:09.121Z,27.83
2022-10-13T05:29:37.290Z,31.90
2022-10-13T05:32:04.457Z,25.33
2022-10-13T05:34:31.875Z,32.53
2022-10-13T05:36:59.678Z,45.58
2022-10-13T05:39:26.575Z,28.50
2022-10-13T05:41:53.518Z,31.07
2022-10-13T05:44:21.215Z,27.02
2022-10-13T05:46:48.007Z,24.25
2022-10-13T05:49:14.937Z,23.35
2022-10-13T05:51:45.379Z,27.17
2022-10-13T05:54:21.518Z,35.80
2022-10-13T05:56:55.584Z,30.80
2022-10-13T05:59:27.156Z,26.38
2022-10-13T06:01:55.134Z,23.45
2022-10-13T06:04:32.137Z,36.83
2022-10-13T06:06:59.117Z,25.60
2022-10-13T06:09:32.580Z,34.63
2022-10-13T06:11:59.621Z,23.13
2022-10-13T06:14:26.445Z,31.17
2022-10-13T06:16:53.259Z,26.63
2022-10-13T06:19:20.357Z,23.17
2022-10-13T06:21:47.488Z,39.80
2022-10-13T06:24:14.290Z,23.25
2022-10-13T06:26:41.395Z,30.08
2022-10-13T06:29:08.269Z,27.33
2022-10-13T06:31:35.353Z,26.83
2022-10-13T06:34:02.511Z,29.70
2022-10-13T06:36:29.311Z,26.65
2022-10-13T06:38:56.399Z,30.48
2022-10-13T06:41:23.376Z,36.03
2022-10-13T06:43:50.296Z,28.93
2022-10-13T06:46:17.442Z,30.38
2022-10-13T06:48:44.744Z,28.08
2022-10-13T06:51:12.518Z,28.75
2022-10-13T06:53:39.473Z,28.42
2022-10-13T06:56:07.681Z,27.47
2022-10-13T06:58:35.857Z,27.25
2022-10-13T07:01:03.157Z,23.55
2022-10-13T07:03:30.149Z,21.55
2022-10-13T07:06:04.958Z,21.50
2022-10-13T07:08:34.847Z,23.73
2022-10-13T07:11:14.546Z,21.60
2022-10-13T07:13:46.193Z,24.25
2022-10-13T07:16:14.912Z,20.52
2022-10-13T07:18:41.977Z,19.50
2022-10-13T07:21:09.777Z,22.40
2022-10-13T07:23:36.756Z,19.10
2022-10-13T07:26:11.255Z,24.08
2022-10-13T07:28:39.112Z,19.42
2022-10-13T07:31:11.372Z,17.10
2022-10-13T07:33:38.954Z,21.30
2022-10-13T07:36:06.275Z,22.75
2022-10-13T07:38:33.246Z,17.40
2022-10-13T07:41:05.238Z,20.80
2022-10-13T07:43:32.286Z,18.80
2022-10-13T07:45:59.914Z,20.63
2022-10-13T07:48:27.496Z,18.33
2022-10-13T07:50:54.490Z,16.20
2022-10-13T07:53:21.503Z,22.02
2022-10-13T07:55:48.978Z,19.30
2022-10-13T07:58:16.044Z,16.43
2022-10-13T08:00:42.969Z,17.48
2022-10-13T08:03:10.322Z,19.05
2022-10-13T08:05:37.885Z,17.42
2022-10-13T08:08:04.834Z,20.77
2022-10-13T08:10:31.965Z,18.80
2022-10-13T08:12:58.852Z,20.23
2022-10-13T08:15:26.753Z,18.10
2022-10-13T08:17:53.871Z,17.13
2022-10-13T08:20:20.798Z,17.67
2022-10-13T08:22:47.655Z,20.40
2022-10-13T08:25:14.589Z,16.85
2022-10-13T08:27:51.132Z,19.33
2022-10-13T08:30:19.887Z,17.83
2022-10-13T08:32:46.954Z,17.75
2022-10-13T08:35:13.828Z,17.20
2022-10-13T08:37:41.012Z,20.38
2022-10-13T08:40:12.098Z,18.98
2022-10-13T08:42:44.322Z,16.23
2022-10-13T08:45:40.488Z,20.13
2022-10-13T08:48:22.021Z,17.17
2022-10-13T08:50:57.805Z,16.75
2022-10-13T08:53:43.833Z,17.10
2022-10-13T08:56:30.759Z,18.70
2022-10-13T08:58:57.914Z,17.58
2022-10-13T09:01:33.709Z,17.00
2022-10-13T09:04:32.840Z,15.07
2022-10-13T09:07:07.317Z,14.93
2022-10-13T09:09:34.435Z,16.38
2022-10-13T09:12:02.073Z,14.20
2022-10-13T09:14:32.428Z,14.87
2022-10-13T09:17:23.390Z,16.60
2022-10-13T09:20:04.515Z,18.75
2022-10-13T09:22:34.716Z,16.40
2022-10-13T09:25:07.098Z,15.05
2022-10-13T09:27:53.934Z,14.83
2022-10-13T09:30:38.658Z,13.25
2022-10-13T09:33:08.686Z,11.50
2022-10-13T09:35:37.641Z,14.10
2022-10-13T09:38:21.079Z,13.65
2022-10-13T09:41:02.573Z,16.50
2022-10-13T09:43:35.399Z,12.63
2022-10-13T09:46:11.536Z,13.30
2022-10-13T09:48:40.713Z,15.40
2022-10-13T09:51:27.491Z,11.90
2022-10-13T09:53:54.421Z,13.47
2022-10-13T09:56:37.197Z,13.40
2022-10-13T09:59:25.112Z,14.73
2022-10-13T10:01:55.911Z,18.73
2022-10-13T10:04:26.263Z,10.98
2022-10-13T10:06:53.109Z,11.33
2022-10-13T10:09:22.631Z,10.80
2022-10-13T10:11:53.174Z,10.70
2022-10-13T10:14:34.706Z,12.30
2022-10-13T10:17:26.199Z,19.80
2022-10-13T10:20:10.812Z,10.53
2022-10-13T10:23:05.259Z,13.73
2022-10-13T10:25:45.902Z,11.55
2022-10-13T10:28:34.005Z,12.50
2022-10-13T10:31:06.752Z,11.38
2022-10-13T10:33:55.117Z,9.20
2022-10-13T10:36:39.536Z,11.30
2022-10-13T10:39:32.632Z,9.48
2022-10-13T10:42:25.468Z,10.40
2022-10-13T10:44:56.485Z,10.70
2022-10-13T10:47:43.526Z,11.20
2022-10-13T10:50:15.453Z,10.07
2022-10-13T10:53:07.308Z,8.57
2022-10-13T10:55:39.984Z,9.88
2022-10-13T10:58:25.123Z,12.10
2022-10-13T11:00:56.056Z,8.97
2022-10-13T11:03:40.618Z,10.38
2022-10-13T11:06:13.274Z,11.73
2022-10-13T11:08:45.816Z,11.65
2022-10-13T11:11:26.789Z,10.82
2022-10-13T11:14:07.466Z,8.70
2022-10-13T11:16:55.954Z,13.00
2022-10-13T11:19:36.001Z,11.23
2022-10-13T11:22:02.790Z,9.93
2022-10-13T11:24:42.130Z,15.15
2022-10-13T11:27:08.989Z,12.87
2022-10-13T11:29:45.056Z,9.13
2022-10-13T11:32:44.459Z,10.32
2022-10-13T11:35:11.113Z,9.07
2022-10-13T11:38:06.114Z,10.82
2022-10-13T11:40:42.150Z,10.90
2022-10-13T11:43:17.973Z,9.50
2022-10-13T11:46:01.915Z,11.50
2022-10-13T11:48:47.275Z,9.23
2022-10-13T11:51:48.871Z,10.38
2022-10-13T11:54:47.536Z,10.07
2022-10-13T11:57:26.127Z,9.18
2022-10-13T11:59:55.676Z,11.52
2022-10-13T12:02:25.925Z,9.02
2022-10-13T12:05:24.097Z,11.50
2022-10-13T12:07:57.202Z,10.27
2022-10-13T12:10:35.876Z,9.07
2022-10-13T12:13:03.873Z,8.95
2022-10-13T12:15:35.435Z,8.43
2022-10-13T12:18:04.058Z,7.65
2022-10-13T12:20:33.131Z,8.63
2022-10-13T12:23:00.316Z,10.05
2022-10-13T12:25:30.331Z,9.40
2022-10-13T12:28:00.568Z,6.97
2022-10-13T12:30:34.819Z,8.40
2022-10-13T12:33:01.997Z,7.07
2022-10-13T12:35:31.689Z,10.15
2022-10-13T12:38:02.378Z,7.00
2022-10-13T12:40:30.155Z,7.10
2022-10-13T12:42:57.479Z,8.38
2022-10-13T12:45:31.783Z,7.33
2022-10-13T12:47:58.893Z,7.82
2022-10-13T12:50:25.673Z,8.27
2022-10-13T12:52:55.438Z,12.25
2022-10-13T12:55:23.458Z,8.43
2022-10-13T12:57:51.694Z,9.30
2022-10-13T13:00:22.492Z,8.77
2022-10-13T13:03:06.269Z,9.10
2022-10-13T13:05:34.390Z,10.10
2022-10-13T13:08:02.273Z,9.98
2022-10-13T13:10:29.514Z,10.23
2022-10-13T13:12:57.079Z,8.35
2022-10-13T13:15:37.998Z,11.88
2022-10-13T13:18:31.283Z,8.90
2022-10-13T13:20:58.654Z,8.98
2022-10-13T13:23:25.443Z,8.77
2022-10-13T13:26:24.808Z,9.35
2022-10-13T13:28:54.199Z,10.02
2022-10-13T13:31:23.716Z,10.30
2022-10-13T13:33:51.234Z,8.02
2022-10-13T13:36:19.382Z,7.73
2022-10-13T13:38:46.613Z,9.48
2022-10-13T13:41:14.127Z,9.63
2022-10-13T13:43:41.645Z,7.63
2022-10-13T13:46:16.237Z,7.93
2022-10-13T13:48:43.150Z,8.47
2022-10-13T13:51:10.971Z,9.30
2022-10-13T13:53:37.988Z,7.45
2022-10-13T13:56:05.528Z,6.60
2022-10-13T13:58:32.469Z,8.32
2022-10-13T14:01:00.365Z,10.13
2022-10-13T14:03:27.317Z,7.93
2022-10-13T14:05:54.088Z,9.05
2022-10-13T14:08:21.221Z,9.02
2022-10-13T14:10:48.128Z,9.90
2022-10-13T14:13:15.038Z,12.63
2022-10-13T14:15:42.119Z,15.98
2022-10-13T14:18:08.962Z,7.95
2022-10-13T14:20:35.777Z,9.25
2022-10-13T14:23:02.995Z,9.27
2022-10-13T14:25:29.759Z,9.73
2022-10-13T14:27:56.496Z,14.88
2022-10-13T14:30:23.925Z,10.07
2022-10-13T14:32:50.716Z,8.13
2022-10-13T14:35:17.736Z,10.25
2022-10-13T14:37:44.926Z,10.40
2022-10-13T14:40:11.800Z,13.55
2022-10-13T14:42:38.592Z,9.75
2022-10-13T14:45:06.441Z,10.70
2022-10-13T14:47:33.314Z,9.40
2022-10-13T14:50:00.243Z,9.43
2022-10-13T14:52:27.114Z,8.02
2022-10-13T14:54:54.012Z,11.48
2022-10-13T14:57:21.097Z,9.80
2022-10-13T14:59:48.402Z,9.85
2022-10-13T15:02:15.658Z,11.27
2022-10-13T15:04:42.470Z,10.35
2022-10-13T15:07:09.550Z,15.23
2022-10-13T15:09:53.208Z,7.75
2022-10-13T15:12:23.826Z,9.20
2022-10-13T15:14:50.897Z,21.47
2022-10-13T15:17:17.813Z,10.48
2022-10-13T15:19:44.816Z,11.57
2022-10-13T15:22:11.645Z,9.68
2022-10-13T15:24:38.441Z,10.02
2022-10-13T15:27:07.561Z,11.07
2022-10-13T15:29:34.535Z,9.98
2022-10-13T15:32:11.514Z,8.80
2022-10-13T15:34:41.447Z,15.52
2022-10-13T15:37:14.248Z,9.95
2022-10-13T15:39:41.097Z,9.90
2022-10-13T15:42:08.017Z,7.68
2022-10-13T15:44:57.330Z,8.27
2022-10-13T15:47:21.892Z,8.18
2022-10-13T15:49:49.093Z,7.70
2022-10-13T15:52:16.001Z,7.50
2022-10-13T15:54:43.117Z,8.27
2022-10-13T15:57:09.995Z,12.25
2022-10-13T15:59:36.817Z,11.75
2022-10-13T16:02:03.735Z,13.52
2022-10-13T16:04:34.803Z,11.00
2022-10-13T16:07:04.778Z,9.95
2022-10-13T16:09:31.922Z,11.05
2022-10-13T16:11:59.017Z,12.02
2022-10-13T16:14:26.068Z,10.82
2022-10-13T16:16:52.914Z,9.40
2022-10-13T16:19:20.008Z,11.85
2022-10-13T16:21:47.471Z,9.90
2022-10-13T16:24:14.394Z,8.73
2022-10-13T16:26:41.258Z,10.00
2022-10-13T16:29:08.415Z,8.17
2022-10-13T16:31:35.450Z,10.00
2022-10-13T16:34:02.749Z,8.15
2022-10-13T16:36:39.096Z,9.57
2022-10-13T16:39:05.990Z,7.43
2022-10-13T16:41:32.963Z,11.63
2022-10-13T16:44:00.117Z,13.65
2022-10-13T16:46:28.180Z,12.10
2022-10-13T16:48:55.355Z,9.60
2022-10-13T16:51:24.867Z,7.30
2022-10-13T16:53:54.114Z,10.00
2022-10-13T16:56:22.443Z,11.73
2022-10-13T16:58:51.396Z,12.63
2022-10-13T17:01:18.445Z,10.60
2022-10-13T17:03:46.440Z,9.10
2022-10-13T17:06:14.641Z,8.47
2022-10-13T17:08:42.538Z,7.32
2022-10-13T17:11:15.440Z,7.70
2022-10-13T17:13:42.873Z,10.88
2022-10-13T17:16:12.657Z,11.75
2022-10-13T17:18:39.937Z,10.47
2022-10-13T17:21:10.060Z,11.82
2022-10-13T17:23:37.918Z,10.93
2022-10-13T17:26:11.114Z,15.23
2022-10-13T17:28:39.228Z,12.57
2022-10-13T17:31:12.027Z,8.73
2022-10-13T17:33:40.377Z,10.38
2022-10-13T17:36:19.228Z,8.80
2022-10-13T17:38:46.899Z,14.05
2022-10-13T17:41:14.464Z,9.90
2022-10-13T17:43:42.312Z,10.50
2022-10-13T17:46:42.599Z,9.73
2022-10-13T17:49:12.201Z,8.88
2022-10-13T17:51:40.728Z,11.45
2022-10-13T17:54:11.592Z,9.65
2022-10-13T17:56:42.177Z,9.83
2022-10-13T17:59:09.086Z,12.25
2022-10-13T18:01:36.307Z,11.18
2022-10-13T18:04:06.656Z,12.82
2022-10-13T18:06:38.632Z,15.95
2022-10-13T18:09:18.393Z,12.07
2022-10-13T18:11:50.721Z,12.48
2022-10-13T18:14:20.270Z,14.40
2022-10-13T18:16:47.589Z,12.77
2022-10-13T18:19:15.164Z,12.27
2022-10-13T18:21:42.292Z,11.97
2022-10-13T18:24:10.658Z,11.25
2022-10-13T18:26:37.758Z,11.88
2022-10-13T18:29:07.329Z,12.32
2022-10-13T18:31:37.059Z,14.77
2022-10-13T18:34:08.197Z,16.47
2022-10-13T18:36:38.359Z,16.83
2022-10-13T18:39:14.293Z,11.15
2022-10-13T18:41:42.258Z,11.52
2022-10-13T18:44:10.039Z,13.88
2022-10-13T18:46:38.923Z,13.17
2022-10-13T18:49:07.933Z,14.43
2022-10-13T18:51:36.424Z,10.10
2022-10-13T18:54:05.090Z,12.60
2022-10-13T18:56:33.180Z,14.00
2022-10-13T18:59:02.376Z,12.00
2022-10-13T19:01:32.258Z,11.05
2022-10-13T19:03:59.758Z,10.88
2022-10-13T19:06:28.580Z,11.93
2022-10-13T19:09:01.133Z,10.35
2022-10-13T19:11:29.336Z,9.60
2022-10-13T19:13:57.765Z,11.35
2022-10-13T19:16:27.047Z,8.70
2022-10-13T19:18:54.093Z,8.73
2022-10-13T19:21:22.477Z,13.68
2022-10-13T19:23:49.970Z,14.37
2022-10-13T19:26:19.921Z,11.90
2022-10-13T19:28:47.392Z,14.55
2022-10-13T19:31:17.917Z,19.35
2022-10-13T19:33:45.715Z,12.75
2022-10-13T19:36:24.004Z,11.03
2022-10-13T19:38:51.396Z,12.82
2022-10-13T19:41:18.497Z,12.45
2022-10-13T19:43:45.436Z,10.27
2022-10-13T19:46:12.468Z,14.75
2022-10-13T19:48:39.334Z,10.10
2022-10-13T19:51:08.440Z,10.77
2022-10-13T19:53:36.133Z,13.23
2022-10-13T19:56:03.006Z,9.55
2022-10-13T19:58:30.326Z,10.45
2022-10-13T20:01:02.710Z,11.80
2022-10-13T20:03:29.698Z,9.35
2022-10-13T20:06:09.923Z,13.38
2022-10-13T20:08:42.816Z,13.45
2022-10-13T20:11:12.634Z,13.10
2022-10-13T20:13:39.729Z,9.27
2022-10-13T20:16:08.964Z,9.60
2022-10-13T20:18:39.275Z,10.77
2022-10-13T20:21:09.317Z,11.48
2022-10-13T20:23:36.835Z,11.52
2022-10-13T20:26:09.993Z,12.07
2022-10-13T20:28:42.885Z,9.40
2022-10-13T20:31:11.639Z,8.75
2022-10-13T20:33:39.035Z,8.75
2022-10-13T20:36:08.609Z,8.55
2022-10-13T20:38:36.393Z,11.30
2022-10-13T20:41:05.294Z,16.50
2022-10-13T20:43:32.580Z,14.30
2022-10-13T20:46:05.201Z,15.05
2022-10-13T20:48:45.572Z,13.30
2022-10-13T20:51:24.148Z,11.53
2022-10-13T20:53:51.175Z,11.35
2022-10-13T20:56:21.551Z,8.38
2022-10-13T20:58:49.375Z,9.00
2022-10-13T21:01:17.553Z,11.88
2022-10-13T21:03:44.512Z,10.57
2022-10-13T21:06:13.795Z,8.88
2022-10-13T21:08:44.135Z,10.93
2022-10-13T21:11:13.732Z,10.73
2022-10-13T21:13:42.347Z,12.38
2022-10-13T21:16:21.400Z,11.77
2022-10-13T21:18:50.023Z,10.77
2022-10-13T21:21:23.040Z,13.95
2022-10-13T21:23:53.996Z,10.27
2022-10-13T21:26:22.446Z,10.35
2022-10-13T21:28:50.676Z,12.77
2022-10-13T21:31:19.555Z,16.52
2022-10-13T21:33:46.714Z,13.05
2022-10-13T21:36:20.396Z,16.08
2022-10-13T21:38:50.199Z,14.50
2022-10-13T21:41:19.643Z,12.67
2022-10-13T21:43:47.976Z,11.57
2022-10-13T21:46:20.884Z,13.45
2022-10-13T21:48:48.542Z,12.88
2022-10-13T21:51:21.657Z,11.25
2022-10-13T21:53:54.213Z,13.90
2022-10-13T21:56:22.638Z,13.90
2022-10-13T21:58:50.080Z,12.15
2022-10-13T22:01:18.726Z,13.23
2022-10-13T22:03:47.164Z,12.77
2022-10-13T22:06:19.083Z,13.30
2022-10-13T22:08:49.447Z,12.15
2022-10-13T22:11:18.456Z,18.90
2022-10-13T22:13:46.115Z,12.32
2022-10-13T22:16:18.421Z,16.27
2022-10-13T22:18:47.158Z,12.17
2022-10-13T22:21:17.522Z,16.60
2022-10-13T22:23:46.265Z,14.30
2022-10-13T22:26:15.431Z,13.68
2022-10-13T22:28:42.816Z,12.52
2022-10-13T22:31:12.961Z,13.30
2022-10-13T22:33:41.379Z,13.68
2022-10-13T22:36:19.701Z,14.05
2022-10-13T22:38:49.240Z,13.50
2022-10-13T22:41:18.165Z,13.48
2022-10-13T22:43:49.482Z,11.10
2022-10-13T22:46:18.806Z,13.15
2022-10-13T22:48:46.217Z,13.30
2022-10-13T22:51:16.611Z,20.10
2022-10-13T22:53:44.252Z,11.70
2022-10-13T22:56:17.535Z,14.63
2022-10-13T22:58:48.538Z,17.20
2022-10-13T23:01:16.395Z,12.60
2022-10-13T23:03:46.501Z,14.30
2022-10-13T23:06:15.648Z,14.20
2022-10-13T23:08:42.870Z,11.80
2022-10-13T23:11:10.366Z,12.10
2022-10-13T23:13:37.612Z,11.32
2022-10-13T23:16:11.963Z,15.25
2022-10-13T23:18:39.638Z,10.73
2022-10-13T23:21:13.126Z,12.80
2022-10-13T23:23:40.457Z,11.20
2022-10-13T23:26:13.843Z,11.65
2022-10-13T23:28:41.083Z,13.02
2022-10-13T23:31:14.965Z,13.07
2022-10-13T23:33:42.076Z,11.80
2022-10-13T23:36:11.366Z,13.43
2022-10-13T23:38:38.679Z,14.98
2022-10-13T23:41:10.978Z,12.13
2022-10-13T23:43:38.237Z,12.63
2022-10-13T23:46:05.950Z,12.13
2022-10-13T23:48:33.241Z,11.18
2022-10-13T23:51:10.478Z,12.93
2022-10-13T23:53:38.398Z,11.15
2022-10-13T23:56:06.951Z,12.23
2022-10-13T23:58:36.756Z,13.43
